sensor_id;sensor_type;location;lat;lon;timestamp;temperature;humidity
11126;DHT22;5617;54.046;10.676;2023-07-31T00:02:05;14.70;99.90
11126;DHT22;5617;54.046;10.676;2023-07-31T00:04:13;14.70;99.90
11126;DHT22;5617;54.046;10.676;2023-07-31T00:06:21;14.70;99.90
11126;DHT22;5617;54.046;10.676;2023-07-31T00:08:29;14.70;99.90
11126;DHT22;5617;54.046;10.676;2023-07-31T00:10:37;14.70;99.90
11126;DHT22;5617;54.046;10.676;2023-07-31T00:12:45;14.70;99.90
11126;DHT22;5617;54.046;10.676;2023-07-31T00:14:53;14.70;99.90
11126;DHT22;5617;54.046;10.676;2023-07-31T00:17:01;14.70;99.90
11126;DHT22;5617;54.046;10.676;2023-07-31T00:19:10;14.80;99.90
11126;DHT22;5617;54.046;10.676;2023-07-31T00:21:18;14.80;99.90
11126;DHT22;5617;54.046;10.676;2023-07-31T00:23:26;14.80;99.90
11126;DHT22;5617;54.046;10.676;2023-07-31T00:25:34;14.80;99.90
11126;DHT22;5617;54.046;10.676;2023-07-31T00:27:42;14.80;99.90
11126;DHT22;5617;54.046;10.676;2023-07-31T00:29:52;14.80;99.90
11126;DHT22;5617;54.046;10.676;2023-07-31T00:32:00;14.80;99.90
11126;DHT22;5617;54.046;10.676;2023-07-31T00:34:10;14.80;99.90
11126;DHT22;5617;54.046;10.676;2023-07-31T00:36:18;14.80;99.90
11126;DHT22;5617;54.046;10.676;2023-07-31T00:38:26;14.80;99.90
11126;DHT22;5617;54.046;10.676;2023-07-31T00:40:35;14.80;99.90
11126;DHT22;5617;54.046;10.676;2023-07-31T00:42:43;14.80;99.90
11126;DHT22;5617;54.046;10.676;2023-07-31T00:44:52;14.90;99.90
11126;DHT22;5617;54.046;10.676;2023-07-31T00:47:01;14.90;99.90
11126;DHT22;5617;54.046;10.676;2023-07-31T00:49:11;14.90;99.90
11126;DHT22;5617;54.046;10.676;2023-07-31T00:51:19;14.90;99.90
11126;DHT22;5617;54.046;10.676;2023-07-31T00:53:28;15.00;99.90
11126;DHT22;5617;54.046;10.676;2023-07-31T00:55:36;15.00;99.90
11126;DHT22;5617;54.046;10.676;2023-07-31T00:57:45;15.00;99.90
11126;DHT22;5617;54.046;10.676;2023-07-31T00:59:53;15.00;99.90
11126;DHT22;5617;54.046;10.676;2023-07-31T01:02:01;15.00;99.90
11126;DHT22;5617;54.046;10.676;2023-07-31T01:04:11;14.90;99.90
11126;DHT22;5617;54.046;10.676;2023-07-31T01:06:26;15.00;99.90
11126;DHT22;5617;54.046;10.676;2023-07-31T01:08:40;15.00;99.90
11126;DHT22;5617;54.046;10.676;2023-07-31T01:10:53;15.00;99.90
11126;DHT22;5617;54.046;10.676;2023-07-31T01:13:03;15.00;99.90
11126;DHT22;5617;54.046;10.676;2023-07-31T01:15:12;15.00;99.90
11126;DHT22;5617;54.046;10.676;2023-07-31T01:17:22;15.00;99.90
11126;DHT22;5617;54.046;10.676;2023-07-31T01:19:31;15.20;99.90
11126;DHT22;5617;54.046;10.676;2023-07-31T01:21:58;15.00;99.90
11126;DHT22;5617;54.046;10.676;2023-07-31T01:24:30;15.10;99.90
11126;DHT22;5617;54.046;10.676;2023-07-31T01:26:48;15.10;99.90
11126;DHT22;5617;54.046;10.676;2023-07-31T01:29:01;15.10;99.90
11126;DHT22;5617;54.046;10.676;2023-07-31T01:31:14;15.20;99.90
11126;DHT22;5617;54.046;10.676;2023-07-31T01:33:23;15.10;99.90
11126;DHT22;5617;54.046;10.676;2023-07-31T01:35:31;15.20;99.90
11126;DHT22;5617;54.046;10.676;2023-07-31T01:37:39;15.20;99.90
11126;DHT22;5617;54.046;10.676;2023-07-31T01:39:47;15.20;99.90
11126;DHT22;5617;54.046;10.676;2023-07-31T01:41:57;15.20;99.90
11126;DHT22;5617;54.046;10.676;2023-07-31T01:44:05;15.30;99.90
11126;DHT22;5617;54.046;10.676;2023-07-31T01:46:14;15.30;99.90
11126;DHT22;5617;54.046;10.676;2023-07-31T01:48:22;15.30;99.90
11126;DHT22;5617;54.046;10.676;2023-07-31T01:50:29;15.30;99.90
11126;DHT22;5617;54.046;10.676;2023-07-31T01:52:37;15.30;99.90
11126;DHT22;5617;54.046;10.676;2023-07-31T01:54:46;15.30;99.90
11126;DHT22;5617;54.046;10.676;2023-07-31T01:56:53;15.30;99.90
11126;DHT22;5617;54.046;10.676;2023-07-31T01:59:05;15.30;99.90
11126;DHT22;5617;54.046;10.676;2023-07-31T02:01:13;15.30;99.90
11126;DHT22;5617;54.046;10.676;2023-07-31T02:03:20;15.30;99.90
11126;DHT22;5617;54.046;10.676;2023-07-31T02:05:28;15.30;99.90
11126;DHT22;5617;54.046;10.676;2023-07-31T02:07:36;15.30;99.90
11126;DHT22;5617;54.046;10.676;2023-07-31T02:09:44;15.30;99.90
11126;DHT22;5617;54.046;10.676;2023-07-31T02:11:53;15.30;99.90
11126;DHT22;5617;54.046;10.676;2023-07-31T02:14:01;15.40;99.90
11126;DHT22;5617;54.046;10.676;2023-07-31T02:16:10;15.40;99.90
11126;DHT22;5617;54.046;10.676;2023-07-31T02:18:18;15.40;99.90
11126;DHT22;5617;54.046;10.676;2023-07-31T02:20:26;15.40;99.90
11126;DHT22;5617;54.046;10.676;2023-07-31T02:22:37;15.40;99.90
11126;DHT22;5617;54.046;10.676;2023-07-31T02:24:45;15.40;99.90
11126;DHT22;5617;54.046;10.676;2023-07-31T02:26:56;15.40;99.90
11126;DHT22;5617;54.046;10.676;2023-07-31T02:29:04;15.40;99.90
11126;DHT22;5617;54.046;10.676;2023-07-31T02:31:12;15.40;99.90
11126;DHT22;5617;54.046;10.676;2023-07-31T02:33:20;15.40;99.90
11126;DHT22;5617;54.046;10.676;2023-07-31T02:35:27;15.30;99.90
11126;DHT22;5617;54.046;10.676;2023-07-31T02:37:38;15.40;99.90
11126;DHT22;5617;54.046;10.676;2023-07-31T02:39:46;15.30;99.90
11126;DHT22;5617;54.046;10.676;2023-07-31T02:41:54;15.30;99.90
11126;DHT22;5617;54.046;10.676;2023-07-31T02:44:02;15.30;99.90
11126;DHT22;5617;54.046;10.676;2023-07-31T02:46:10;15.30;99.90
11126;DHT22;5617;54.046;10.676;2023-07-31T02:48:19;15.30;99.90
11126;DHT22;5617;54.046;10.676;2023-07-31T02:50:27;15.30;99.90
11126;DHT22;5617;54.046;10.676;2023-07-31T02:52:35;15.40;99.90
11126;DHT22;5617;54.046;10.676;2023-07-31T02:54:46;15.30;99.90
11126;DHT22;5617;54.046;10.676;2023-07-31T02:56:56;15.30;99.90
11126;DHT22;5617;54.046;10.676;2023-07-31T02:59:04;15.30;99.90
11126;DHT22;5617;54.046;10.676;2023-07-31T03:01:12;15.30;99.90
11126;DHT22;5617;54.046;10.676;2023-07-31T03:03:22;15.30;99.90
11126;DHT22;5617;54.046;10.676;2023-07-31T03:05:30;15.20;99.90
11126;DHT22;5617;54.046;10.676;2023-07-31T03:07:37;15.20;99.90
11126;DHT22;5617;54.046;10.676;2023-07-31T03:09:45;15.20;99.90
11126;DHT22;5617;54.046;10.676;2023-07-31T03:11:53;15.20;99.90
11126;DHT22;5617;54.046;10.676;2023-07-31T03:14:01;15.20;99.90
11126;DHT22;5617;54.046;10.676;2023-07-31T03:16:09;15.20;99.90
11126;DHT22;5617;54.046;10.676;2023-07-31T03:18:17;15.20;99.90
11126;DHT22;5617;54.046;10.676;2023-07-31T03:20:26;15.20;99.90
11126;DHT22;5617;54.046;10.676;2023-07-31T03:22:34;15.20;99.90
11126;DHT22;5617;54.046;10.676;2023-07-31T03:24:42;15.20;99.90
11126;DHT22;5617;54.046;10.676;2023-07-31T03:26:50;15.20;99.90
11126;DHT22;5617;54.046;10.676;2023-07-31T03:28:58;15.20;99.90
11126;DHT22;5617;54.046;10.676;2023-07-31T03:31:06;15.20;99.90
11126;DHT22;5617;54.046;10.676;2023-07-31T03:33:18;15.20;99.90
11126;DHT22;5617;54.046;10.676;2023-07-31T03:35:28;15.20;99.90
11126;DHT22;5617;54.046;10.676;2023-07-31T03:37:36;15.20;99.90
11126;DHT22;5617;54.046;10.676;2023-07-31T03:39:44;15.20;99.90
11126;DHT22;5617;54.046;10.676;2023-07-31T03:41:52;15.10;99.90
11126;DHT22;5617;54.046;10.676;2023-07-31T03:44:00;15.20;99.90
11126;DHT22;5617;54.046;10.676;2023-07-31T03:46:08;15.10;99.90
11126;DHT22;5617;54.046;10.676;2023-07-31T03:48:16;15.10;99.90
11126;DHT22;5617;54.046;10.676;2023-07-31T03:50:24;15.10;99.90
11126;DHT22;5617;54.046;10.676;2023-07-31T03:52:33;15.10;99.90
11126;DHT22;5617;54.046;10.676;2023-07-31T03:54:41;15.10;99.90
11126;DHT22;5617;54.046;10.676;2023-07-31T03:56:51;15.20;99.90
11126;DHT22;5617;54.046;10.676;2023-07-31T03:58:59;15.20;99.90
11126;DHT22;5617;54.046;10.676;2023-07-31T04:01:07;15.20;99.90
11126;DHT22;5617;54.046;10.676;2023-07-31T04:03:15;15.20;99.90
11126;DHT22;5617;54.046;10.676;2023-07-31T04:05:23;15.20;99.90
11126;DHT22;5617;54.046;10.676;2023-07-31T04:07:33;15.30;99.90
11126;DHT22;5617;54.046;10.676;2023-07-31T04:09:41;15.30;99.90
11126;DHT22;5617;54.046;10.676;2023-07-31T04:11:49;15.30;99.90
11126;DHT22;5617;54.046;10.676;2023-07-31T04:13:57;15.30;99.90
11126;DHT22;5617;54.046;10.676;2023-07-31T04:16:05;15.20;99.90
11126;DHT22;5617;54.046;10.676;2023-07-31T04:18:13;15.20;99.90
11126;DHT22;5617;54.046;10.676;2023-07-31T04:20:21;15.20;99.90
11126;DHT22;5617;54.046;10.676;2023-07-31T04:22:29;15.20;99.90
11126;DHT22;5617;54.046;10.676;2023-07-31T04:24:38;15.20;99.90
11126;DHT22;5617;54.046;10.676;2023-07-31T04:26:46;15.20;99.90
11126;DHT22;5617;54.046;10.676;2023-07-31T04:28:54;15.30;99.90
11126;DHT22;5617;54.046;10.676;2023-07-31T04:31:03;15.20;99.90
11126;DHT22;5617;54.046;10.676;2023-07-31T04:33:11;15.20;99.90
11126;DHT22;5617;54.046;10.676;2023-07-31T04:35:19;15.20;99.90
11126;DHT22;5617;54.046;10.676;2023-07-31T04:37:27;15.20;99.90
11126;DHT22;5617;54.046;10.676;2023-07-31T04:39:35;15.20;99.90
11126;DHT22;5617;54.046;10.676;2023-07-31T04:41:44;15.20;99.90
11126;DHT22;5617;54.046;10.676;2023-07-31T04:43:52;15.20;99.90
11126;DHT22;5617;54.046;10.676;2023-07-31T04:46:00;15.20;99.90
11126;DHT22;5617;54.046;10.676;2023-07-31T04:48:08;15.30;99.90
11126;DHT22;5617;54.046;10.676;2023-07-31T04:50:16;15.30;99.90
11126;DHT22;5617;54.046;10.676;2023-07-31T04:52:24;15.30;99.90
11126;DHT22;5617;54.046;10.676;2023-07-31T04:54:32;15.30;99.90
11126;DHT22;5617;54.046;10.676;2023-07-31T04:56:40;15.40;99.90
11126;DHT22;5617;54.046;10.676;2023-07-31T04:58:50;15.30;99.90
11126;DHT22;5617;54.046;10.676;2023-07-31T05:00:58;15.40;99.90
11126;DHT22;5617;54.046;10.676;2023-07-31T05:03:05;15.40;99.90
11126;DHT22;5617;54.046;10.676;2023-07-31T05:05:14;15.40;99.90
11126;DHT22;5617;54.046;10.676;2023-07-31T05:07:22;15.50;99.90
11126;DHT22;5617;54.046;10.676;2023-07-31T05:09:30;15.50;99.90
11126;DHT22;5617;54.046;10.676;2023-07-31T05:11:38;15.50;99.90
11126;DHT22;5617;54.046;10.676;2023-07-31T05:13:47;15.50;99.90
11126;DHT22;5617;54.046;10.676;2023-07-31T05:15:56;15.60;99.90
11126;DHT22;5617;54.046;10.676;2023-07-31T05:18:07;15.60;99.90
11126;DHT22;5617;54.046;10.676;2023-07-31T05:20:15;15.50;99.90
11126;DHT22;5617;54.046;10.676;2023-07-31T05:22:23;15.60;99.90
11126;DHT22;5617;54.046;10.676;2023-07-31T05:24:31;15.50;99.90
11126;DHT22;5617;54.046;10.676;2023-07-31T05:26:43;15.60;99.90
11126;DHT22;5617;54.046;10.676;2023-07-31T05:28:52;15.60;99.90
11126;DHT22;5617;54.046;10.676;2023-07-31T05:31:02;15.60;99.90
11126;DHT22;5617;54.046;10.676;2023-07-31T05:33:10;15.70;99.90
11126;DHT22;5617;54.046;10.676;2023-07-31T05:35:22;15.70;99.90
11126;DHT22;5617;54.046;10.676;2023-07-31T05:37:30;15.70;99.90
11126;DHT22;5617;54.046;10.676;2023-07-31T05:39:38;15.80;99.90
11126;DHT22;5617;54.046;10.676;2023-07-31T05:41:46;15.80;99.90
11126;DHT22;5617;54.046;10.676;2023-07-31T05:43:54;15.80;99.90
11126;DHT22;5617;54.046;10.676;2023-07-31T05:46:04;15.90;99.90
11126;DHT22;5617;54.046;10.676;2023-07-31T05:48:13;15.90;99.90
11126;DHT22;5617;54.046;10.676;2023-07-31T05:50:21;15.90;99.90
11126;DHT22;5617;54.046;10.676;2023-07-31T05:52:29;15.90;99.90
11126;DHT22;5617;54.046;10.676;2023-07-31T05:54:37;15.90;99.90
11126;DHT22;5617;54.046;10.676;2023-07-31T05:56:45;16.00;99.90
11126;DHT22;5617;54.046;10.676;2023-07-31T05:58:53;16.00;99.90
11126;DHT22;5617;54.046;10.676;2023-07-31T06:01:02;16.00;99.90
11126;DHT22;5617;54.046;10.676;2023-07-31T06:03:11;16.00;99.90
11126;DHT22;5617;54.046;10.676;2023-07-31T06:05:19;16.00;99.90
11126;DHT22;5617;54.046;10.676;2023-07-31T06:07:27;16.00;99.90
11126;DHT22;5617;54.046;10.676;2023-07-31T06:09:35;16.10;99.90
11126;DHT22;5617;54.046;10.676;2023-07-31T06:11:43;16.10;99.90
11126;DHT22;5617;54.046;10.676;2023-07-31T06:13:51;16.10;99.90
11126;DHT22;5617;54.046;10.676;2023-07-31T06:16:02;16.10;99.90
11126;DHT22;5617;54.046;10.676;2023-07-31T06:18:13;16.20;99.90
11126;DHT22;5617;54.046;10.676;2023-07-31T06:20:21;16.20;99.90
11126;DHT22;5617;54.046;10.676;2023-07-31T06:22:29;16.20;99.90
11126;DHT22;5617;54.046;10.676;2023-07-31T06:24:37;16.30;99.90
11126;DHT22;5617;54.046;10.676;2023-07-31T06:26:45;16.30;99.90
11126;DHT22;5617;54.046;10.676;2023-07-31T06:28:54;16.30;99.90
11126;DHT22;5617;54.046;10.676;2023-07-31T06:31:02;16.40;99.90
11126;DHT22;5617;54.046;10.676;2023-07-31T06:33:10;16.40;99.90
11126;DHT22;5617;54.046;10.676;2023-07-31T06:35:20;16.40;99.90
11126;DHT22;5617;54.046;10.676;2023-07-31T06:37:28;16.40;99.90
11126;DHT22;5617;54.046;10.676;2023-07-31T06:39:36;16.40;99.90
11126;DHT22;5617;54.046;10.676;2023-07-31T06:41:44;16.40;99.90
11126;DHT22;5617;54.046;10.676;2023-07-31T06:43:52;16.40;99.90
11126;DHT22;5617;54.046;10.676;2023-07-31T06:46:04;16.50;99.90
11126;DHT22;5617;54.046;10.676;2023-07-31T06:48:13;16.50;99.90
11126;DHT22;5617;54.046;10.676;2023-07-31T06:50:25;16.60;99.90
11126;DHT22;5617;54.046;10.676;2023-07-31T06:52:33;16.60;99.90
11126;DHT22;5617;54.046;10.676;2023-07-31T06:54:41;16.70;99.90
11126;DHT22;5617;54.046;10.676;2023-07-31T06:56:49;16.80;99.90
11126;DHT22;5617;54.046;10.676;2023-07-31T06:58:57;16.80;99.90
11126;DHT22;5617;54.046;10.676;2023-07-31T07:01:05;16.90;99.90
11126;DHT22;5617;54.046;10.676;2023-07-31T07:03:13;16.90;99.90
11126;DHT22;5617;54.046;10.676;2023-07-31T07:05:25;16.90;99.90
11126;DHT22;5617;54.046;10.676;2023-07-31T07:07:33;16.90;99.90
11126;DHT22;5617;54.046;10.676;2023-07-31T07:09:41;16.90;99.90
11126;DHT22;5617;54.046;10.676;2023-07-31T07:11:50;16.90;99.90
11126;DHT22;5617;54.046;10.676;2023-07-31T07:13:58;16.90;99.90
11126;DHT22;5617;54.046;10.676;2023-07-31T07:16:06;16.90;99.90
11126;DHT22;5617;54.046;10.676;2023-07-31T07:18:15;17.00;99.90
11126;DHT22;5617;54.046;10.676;2023-07-31T07:20:23;17.00;99.90
11126;DHT22;5617;54.046;10.676;2023-07-31T07:22:32;17.00;99.90
11126;DHT22;5617;54.046;10.676;2023-07-31T07:24:43;17.00;99.90
11126;DHT22;5617;54.046;10.676;2023-07-31T07:26:54;17.00;99.90
11126;DHT22;5617;54.046;10.676;2023-07-31T07:29:06;17.00;99.90
11126;DHT22;5617;54.046;10.676;2023-07-31T07:31:15;16.90;99.90
11126;DHT22;5617;54.046;10.676;2023-07-31T07:33:23;16.90;99.90
11126;DHT22;5617;54.046;10.676;2023-07-31T07:35:34;16.90;99.90
11126;DHT22;5617;54.046;10.676;2023-07-31T07:37:44;16.90;99.90
11126;DHT22;5617;54.046;10.676;2023-07-31T07:39:52;16.90;99.90
11126;DHT22;5617;54.046;10.676;2023-07-31T07:42:00;16.90;99.90
11126;DHT22;5617;54.046;10.676;2023-07-31T07:44:08;16.80;99.90
11126;DHT22;5617;54.046;10.676;2023-07-31T07:46:20;16.90;99.90
11126;DHT22;5617;54.046;10.676;2023-07-31T07:48:28;16.90;99.90
11126;DHT22;5617;54.046;10.676;2023-07-31T07:50:38;16.80;99.90
11126;DHT22;5617;54.046;10.676;2023-07-31T07:52:48;16.80;99.90
11126;DHT22;5617;54.046;10.676;2023-07-31T07:55:01;16.80;99.90
11126;DHT22;5617;54.046;10.676;2023-07-31T07:57:10;16.80;99.90
11126;DHT22;5617;54.046;10.676;2023-07-31T07:59:19;16.80;99.90
11126;DHT22;5617;54.046;10.676;2023-07-31T08:01:27;16.80;99.90
11126;DHT22;5617;54.046;10.676;2023-07-31T08:03:35;16.80;99.90
11126;DHT22;5617;54.046;10.676;2023-07-31T08:05:43;16.80;99.90
11126;DHT22;5617;54.046;10.676;2023-07-31T08:07:56;16.80;99.90
11126;DHT22;5617;54.046;10.676;2023-07-31T08:10:04;16.80;99.90
11126;DHT22;5617;54.046;10.676;2023-07-31T08:12:13;16.80;99.90
11126;DHT22;5617;54.046;10.676;2023-07-31T08:14:21;16.80;99.90
11126;DHT22;5617;54.046;10.676;2023-07-31T08:16:29;16.80;99.90
11126;DHT22;5617;54.046;10.676;2023-07-31T08:18:35;16.80;99.90
11126;DHT22;5617;54.046;10.676;2023-07-31T08:20:44;16.80;99.90
11126;DHT22;5617;54.046;10.676;2023-07-31T08:22:53;16.80;99.90
11126;DHT22;5617;54.046;10.676;2023-07-31T08:25:02;16.80;99.90
11126;DHT22;5617;54.046;10.676;2023-07-31T08:27:11;16.80;99.90
11126;DHT22;5617;54.046;10.676;2023-07-31T08:29:19;16.80;99.90
11126;DHT22;5617;54.046;10.676;2023-07-31T08:31:28;16.80;99.90
11126;DHT22;5617;54.046;10.676;2023-07-31T08:33:37;16.90;99.90
11126;DHT22;5617;54.046;10.676;2023-07-31T08:35:45;16.90;99.90
11126;DHT22;5617;54.046;10.676;2023-07-31T08:37:54;16.90;99.90
11126;DHT22;5617;54.046;10.676;2023-07-31T08:40:05;16.90;99.90
11126;DHT22;5617;54.046;10.676;2023-07-31T08:42:14;17.00;99.90
11126;DHT22;5617;54.046;10.676;2023-07-31T08:44:22;17.00;99.90
11126;DHT22;5617;54.046;10.676;2023-07-31T08:46:31;17.00;99.90
11126;DHT22;5617;54.046;10.676;2023-07-31T08:48:42;17.00;99.90
11126;DHT22;5617;54.046;10.676;2023-07-31T08:50:51;17.10;99.90
11126;DHT22;5617;54.046;10.676;2023-07-31T08:53:01;17.10;99.90
11126;DHT22;5617;54.046;10.676;2023-07-31T08:55:10;17.20;99.90
11126;DHT22;5617;54.046;10.676;2023-07-31T08:57:18;17.20;99.90
11126;DHT22;5617;54.046;10.676;2023-07-31T08:59:29;17.20;99.90
11126;DHT22;5617;54.046;10.676;2023-07-31T09:01:43;17.10;99.90
11126;DHT22;5617;54.046;10.676;2023-07-31T09:03:52;17.10;99.90
11126;DHT22;5617;54.046;10.676;2023-07-31T09:06:02;17.10;99.90
11126;DHT22;5617;54.046;10.676;2023-07-31T09:08:18;17.00;99.90
11126;DHT22;5617;54.046;10.676;2023-07-31T09:10:27;17.00;99.90
11126;DHT22;5617;54.046;10.676;2023-07-31T09:12:35;17.00;99.90
11126;DHT22;5617;54.046;10.676;2023-07-31T09:14:45;17.00;99.90
11126;DHT22;5617;54.046;10.676;2023-07-31T09:16:54;17.00;99.90
11126;DHT22;5617;54.046;10.676;2023-07-31T09:19:02;17.00;99.90
11126;DHT22;5617;54.046;10.676;2023-07-31T09:21:11;17.10;99.90
11126;DHT22;5617;54.046;10.676;2023-07-31T09:23:21;17.00;99.90
11126;DHT22;5617;54.046;10.676;2023-07-31T09:25:29;17.00;99.90
11126;DHT22;5617;54.046;10.676;2023-07-31T09:27:46;17.00;99.90
11126;DHT22;5617;54.046;10.676;2023-07-31T09:29:59;17.00;99.90
11126;DHT22;5617;54.046;10.676;2023-07-31T09:32:15;17.00;99.90
11126;DHT22;5617;54.046;10.676;2023-07-31T09:34:29;17.00;99.90
11126;DHT22;5617;54.046;10.676;2023-07-31T09:36:41;17.00;99.90
11126;DHT22;5617;54.046;10.676;2023-07-31T09:38:50;17.00;99.90
11126;DHT22;5617;54.046;10.676;2023-07-31T09:40:59;17.00;99.90
11126;DHT22;5617;54.046;10.676;2023-07-31T09:43:08;17.00;99.90
11126;DHT22;5617;54.046;10.676;2023-07-31T09:45:18;17.10;99.90
11126;DHT22;5617;54.046;10.676;2023-07-31T09:47:35;17.10;99.90
11126;DHT22;5617;54.046;10.676;2023-07-31T09:49:45;17.20;99.90
11126;DHT22;5617;54.046;10.676;2023-07-31T09:51:53;17.20;99.90
11126;DHT22;5617;54.046;10.676;2023-07-31T09:54:03;17.20;99.90
11126;DHT22;5617;54.046;10.676;2023-07-31T09:56:11;17.30;99.90
11126;DHT22;5617;54.046;10.676;2023-07-31T09:58:19;17.30;99.90
11126;DHT22;5617;54.046;10.676;2023-07-31T10:00:29;17.40;99.90
11126;DHT22;5617;54.046;10.676;2023-07-31T10:02:38;17.30;99.90
11126;DHT22;5617;54.046;10.676;2023-07-31T10:04:48;17.30;99.90
11126;DHT22;5617;54.046;10.676;2023-07-31T10:06:57;17.30;99.90
11126;DHT22;5617;54.046;10.676;2023-07-31T10:09:10;17.40;99.90
11126;DHT22;5617;54.046;10.676;2023-07-31T10:11:19;17.30;99.90
11126;DHT22;5617;54.046;10.676;2023-07-31T10:13:28;17.40;99.90
11126;DHT22;5617;54.046;10.676;2023-07-31T10:15:37;17.40;99.90
11126;DHT22;5617;54.046;10.676;2023-07-31T10:17:47;17.50;99.90
11126;DHT22;5617;54.046;10.676;2023-07-31T10:19:56;17.50;99.90
11126;DHT22;5617;54.046;10.676;2023-07-31T10:22:05;17.60;99.90
11126;DHT22;5617;54.046;10.676;2023-07-31T10:24:16;17.60;99.90
11126;DHT22;5617;54.046;10.676;2023-07-31T10:26:25;17.60;99.90
11126;DHT22;5617;54.046;10.676;2023-07-31T10:28:34;17.60;99.90
11126;DHT22;5617;54.046;10.676;2023-07-31T10:30:44;17.70;99.90
11126;DHT22;5617;54.046;10.676;2023-07-31T10:32:53;17.70;99.90
11126;DHT22;5617;54.046;10.676;2023-07-31T10:35:02;17.70;99.90
11126;DHT22;5617;54.046;10.676;2023-07-31T10:37:24;17.70;99.90
11126;DHT22;5617;54.046;10.676;2023-07-31T10:39:35;17.70;99.90
11126;DHT22;5617;54.046;10.676;2023-07-31T10:41:44;17.70;99.90
11126;DHT22;5617;54.046;10.676;2023-07-31T10:43:54;17.70;99.90
11126;DHT22;5617;54.046;10.676;2023-07-31T10:46:08;17.70;99.90
11126;DHT22;5617;54.046;10.676;2023-07-31T10:48:16;17.80;99.90
11126;DHT22;5617;54.046;10.676;2023-07-31T10:50:25;17.80;99.90
11126;DHT22;5617;54.046;10.676;2023-07-31T10:52:35;17.80;99.90
11126;DHT22;5617;54.046;10.676;2023-07-31T10:54:45;17.80;99.90
11126;DHT22;5617;54.046;10.676;2023-07-31T10:56:56;17.80;99.90
11126;DHT22;5617;54.046;10.676;2023-07-31T10:59:05;17.80;99.90
11126;DHT22;5617;54.046;10.676;2023-07-31T11:01:12;17.80;99.90
11126;DHT22;5617;54.046;10.676;2023-07-31T11:03:40;17.80;99.90
11126;DHT22;5617;54.046;10.676;2023-07-31T11:05:50;17.80;99.90
11126;DHT22;5617;54.046;10.676;2023-07-31T11:08:02;17.80;99.90
11126;DHT22;5617;54.046;10.676;2023-07-31T11:10:19;17.80;99.90
11126;DHT22;5617;54.046;10.676;2023-07-31T11:12:30;17.90;99.90
11126;DHT22;5617;54.046;10.676;2023-07-31T11:14:38;17.90;99.90
11126;DHT22;5617;54.046;10.676;2023-07-31T11:16:49;18.00;99.90
11126;DHT22;5617;54.046;10.676;2023-07-31T11:18:57;17.90;99.90
11126;DHT22;5617;54.046;10.676;2023-07-31T11:21:05;18.00;99.90
11126;DHT22;5617;54.046;10.676;2023-07-31T11:23:16;18.10;99.90
11126;DHT22;5617;54.046;10.676;2023-07-31T11:25:25;18.10;99.90
11126;DHT22;5617;54.046;10.676;2023-07-31T11:27:39;18.10;99.90
11126;DHT22;5617;54.046;10.676;2023-07-31T11:29:47;18.00;99.90
11126;DHT22;5617;54.046;10.676;2023-07-31T11:31:56;18.00;99.90
11126;DHT22;5617;54.046;10.676;2023-07-31T11:34:06;18.00;99.90
11126;DHT22;5617;54.046;10.676;2023-07-31T11:36:15;18.00;99.90
11126;DHT22;5617;54.046;10.676;2023-07-31T11:38:25;17.90;99.90
11126;DHT22;5617;54.046;10.676;2023-07-31T11:40:41;18.00;99.90
11126;DHT22;5617;54.046;10.676;2023-07-31T11:42:49;18.00;99.90
11126;DHT22;5617;54.046;10.676;2023-07-31T11:44:57;18.00;99.90
11126;DHT22;5617;54.046;10.676;2023-07-31T11:47:06;18.00;99.90
11126;DHT22;5617;54.046;10.676;2023-07-31T11:49:15;18.10;99.90
11126;DHT22;5617;54.046;10.676;2023-07-31T11:51:23;18.20;99.90
11126;DHT22;5617;54.046;10.676;2023-07-31T11:53:33;18.20;99.90
11126;DHT22;5617;54.046;10.676;2023-07-31T11:55:43;18.20;99.90
11126;DHT22;5617;54.046;10.676;2023-07-31T11:57:52;18.20;99.90
11126;DHT22;5617;54.046;10.676;2023-07-31T12:00:02;18.20;99.90
11126;DHT22;5617;54.046;10.676;2023-07-31T12:02:11;18.30;99.90
11126;DHT22;5617;54.046;10.676;2023-07-31T12:04:20;18.30;99.90
11126;DHT22;5617;54.046;10.676;2023-07-31T12:06:33;18.30;99.90
11126;DHT22;5617;54.046;10.676;2023-07-31T12:08:41;18.30;99.90
11126;DHT22;5617;54.046;10.676;2023-07-31T12:10:51;18.30;99.90
11126;DHT22;5617;54.046;10.676;2023-07-31T12:13:03;18.20;99.90
11126;DHT22;5617;54.046;10.676;2023-07-31T12:15:15;18.30;99.90
11126;DHT22;5617;54.046;10.676;2023-07-31T12:17:22;18.20;99.90
11126;DHT22;5617;54.046;10.676;2023-07-31T12:19:31;18.20;99.90
11126;DHT22;5617;54.046;10.676;2023-07-31T12:21:39;18.10;99.90
11126;DHT22;5617;54.046;10.676;2023-07-31T12:23:48;18.00;99.90
11126;DHT22;5617;54.046;10.676;2023-07-31T12:26:06;18.00;99.90
11126;DHT22;5617;54.046;10.676;2023-07-31T12:28:14;18.00;99.90
11126;DHT22;5617;54.046;10.676;2023-07-31T12:30:29;18.00;99.90
11126;DHT22;5617;54.046;10.676;2023-07-31T12:32:37;17.90;99.90
11126;DHT22;5617;54.046;10.676;2023-07-31T12:34:51;17.90;99.90
11126;DHT22;5617;54.046;10.676;2023-07-31T12:36:59;17.90;99.90
11126;DHT22;5617;54.046;10.676;2023-07-31T12:39:07;17.90;99.90
11126;DHT22;5617;54.046;10.676;2023-07-31T12:41:17;17.90;99.90
11126;DHT22;5617;54.046;10.676;2023-07-31T12:43:28;17.90;99.90
11126;DHT22;5617;54.046;10.676;2023-07-31T12:45:36;17.90;99.90
11126;DHT22;5617;54.046;10.676;2023-07-31T12:47:44;17.80;99.90
11126;DHT22;5617;54.046;10.676;2023-07-31T12:49:52;17.80;99.90
11126;DHT22;5617;54.046;10.676;2023-07-31T12:52:00;17.80;99.90
11126;DHT22;5617;54.046;10.676;2023-07-31T12:54:08;17.80;99.90
11126;DHT22;5617;54.046;10.676;2023-07-31T12:56:17;17.80;99.90
11126;DHT22;5617;54.046;10.676;2023-07-31T12:58:25;17.60;99.90
11126;DHT22;5617;54.046;10.676;2023-07-31T13:00:34;17.60;99.90
11126;DHT22;5617;54.046;10.676;2023-07-31T13:02:42;17.70;99.90
11126;DHT22;5617;54.046;10.676;2023-07-31T13:04:50;17.60;99.90
11126;DHT22;5617;54.046;10.676;2023-07-31T13:06:58;17.70;99.90
11126;DHT22;5617;54.046;10.676;2023-07-31T13:09:06;17.60;99.90
11126;DHT22;5617;54.046;10.676;2023-07-31T13:11:14;17.60;99.90
11126;DHT22;5617;54.046;10.676;2023-07-31T13:13:25;17.60;99.90
11126;DHT22;5617;54.046;10.676;2023-07-31T13:15:32;17.70;99.90
11126;DHT22;5617;54.046;10.676;2023-07-31T13:17:40;17.80;99.90
11126;DHT22;5617;54.046;10.676;2023-07-31T13:19:51;17.90;99.90
11126;DHT22;5617;54.046;10.676;2023-07-31T13:22:02;17.90;99.90
11126;DHT22;5617;54.046;10.676;2023-07-31T13:24:10;17.90;99.90
11126;DHT22;5617;54.046;10.676;2023-07-31T13:26:18;17.90;99.90
11126;DHT22;5617;54.046;10.676;2023-07-31T13:28:27;17.90;99.90
11126;DHT22;5617;54.046;10.676;2023-07-31T13:30:35;17.90;99.90
11126;DHT22;5617;54.046;10.676;2023-07-31T13:32:44;17.90;99.90
11126;DHT22;5617;54.046;10.676;2023-07-31T13:34:52;18.00;99.90
11126;DHT22;5617;54.046;10.676;2023-07-31T13:37:03;17.90;99.90